createdAt,value
2023-01-30T00:01:18.833Z,101561.03
2023-01-30T00:03:48.320Z,101543.03
2023-01-30T00:06:16.191Z,101543.91
2023-01-30T00:08:43.993Z,101551.09
2023-01-30T00:11:16.041Z,101560.91
2023-01-30T00:13:44.691Z,101578.06
2023-01-30T00:16:12.890Z,101568.06
2023-01-30T00:18:42.076Z,101562.56
2023-01-30T00:21:13.253Z,101542.69
2023-01-30T00:23:41.078Z,101547.22
2023-01-30T00:26:10.529Z,101539.03
2023-01-30T00:28:40.160Z,101549.84
2023-01-30T00:31:08.755Z,101538.97
2023-01-30T00:33:38.554Z,101530.81
2023-01-30T00:36:07.287Z,101527.16
2023-01-30T00:38:36.942Z,101535.28
2023-01-30T00:41:07.736Z,101521.75
2023-01-30T00:43:54.377Z,101518.00
2023-01-30T00:46:47.309Z,101517.06
2023-01-30T00:49:15.109Z,101500.13
2023-01-30T00:51:43.146Z,101502.66
2023-01-30T00:54:12.363Z,101481.78
2023-01-30T00:56:40.093Z,101474.53
2023-01-30T00:59:07.843Z,101471.78
2023-01-30T01:01:35.977Z,101478.91
2023-01-30T01:04:03.961Z,101480.66
2023-01-30T01:06:31.781Z,101486.91
2023-01-30T01:08:59.714Z,101474.25
2023-01-30T01:11:28.864Z,101477.78
2023-01-30T01:13:58.545Z,101471.41
2023-01-30T01:16:27.874Z,101475.88
2023-01-30T01:18:56.088Z,101473.94
2023-01-30T01:21:24.405Z,101463.06
2023-01-30T01:23:55.816Z,101461.19
2023-01-30T01:26:24.371Z,101458.41
2023-01-30T01:28:57.124Z,101438.53
2023-01-30T01:31:25.635Z,101446.72
2023-01-30T01:33:53.586Z,101434.84
2023-01-30T01:36:49.808Z,101443.78
2023-01-30T01:39:10.530Z,101441.06
2023-01-30T01:41:37.385Z,101432.88
2023-01-30T01:44:08.854Z,101433.66
2023-01-30T01:46:39.791Z,101432.69
2023-01-30T01:49:15.085Z,101430.84
2023-01-30T01:51:51.075Z,101427.13
2023-01-30T01:54:24.969Z,101428.00
2023-01-30T01:56:53.044Z,101429.84
2023-01-30T01:59:26.025Z,101428.81
2023-01-30T02:01:55.721Z,101424.38
2023-01-30T02:04:49.242Z,101411.84
2023-01-30T02:07:18.161Z,101397.34
2023-01-30T02:09:46.136Z,101400.97
2023-01-30T02:12:16.456Z,101404.31
2023-01-30T02:14:46.157Z,101397.81
2023-01-30T02:17:14.688Z,101390.63
2023-01-30T02:19:50.019Z,101375.22
2023-01-30T02:22:33.797Z,101384.13
2023-01-30T02:25:23.368Z,101377.84
2023-01-30T02:28:29.974Z,101369.78
2023-01-30T02:31:22.079Z,101361.44
2023-01-30T02:33:58.627Z,101353.31
2023-01-30T02:36:35.721Z,101360.47
2023-01-30T02:39:09.812Z,101357.72
2023-01-30T02:41:47.558Z,101355.81
2023-01-30T02:44:24.141Z,101343.16
2023-01-30T02:46:58.200Z,101331.28
2023-01-30T02:49:31.776Z,101327.69
2023-01-30T02:52:01.843Z,101324.91
2023-01-30T02:54:29.718Z,101328.50
2023-01-30T02:56:59.619Z,101333.84
2023-01-30T02:59:32.928Z,101311.16
2023-01-30T03:02:28.640Z,101317.53
2023-01-30T03:05:18.930Z,101330.97
2023-01-30T03:07:55.789Z,101315.63
2023-01-30T03:10:33.555Z,101313.69
2023-01-30T03:13:14.473Z,101306.44
2023-01-30T03:15:49.313Z,101306.38
2023-01-30T03:18:20.490Z,101310.84
2023-01-30T03:20:48.901Z,101310.84
2023-01-30T03:23:16.788Z,101311.63
2023-01-30T03:25:47.155Z,101307.88
2023-01-30T03:28:17.335Z,101307.88
2023-01-30T03:30:45.454Z,101301.56
2023-01-30T03:33:14.646Z,101300.63
2023-01-30T03:35:49.418Z,101291.47
2023-01-30T03:38:18.264Z,101284.25
2023-01-30T03:40:47.719Z,101284.16
2023-01-30T03:43:16.456Z,101291.34
2023-01-30T03:45:44.274Z,101278.69
2023-01-30T03:48:12.298Z,101273.16
2023-01-30T03:50:40.084Z,101268.63
2023-01-30T03:53:09.375Z,101266.78
2023-01-30T03:55:37.178Z,101252.22
2023-01-30T03:58:05.029Z,101255.00
2023-01-30T04:00:34.329Z,101249.50
2023-01-30T04:03:02.911Z,101251.34
2023-01-30T04:05:30.744Z,101237.72
2023-01-30T04:08:04.252Z,101233.19
2023-01-30T04:10:33.470Z,101233.13
2023-01-30T04:13:01.641Z,101245.78
2023-01-30T04:15:30.443Z,101228.66
2023-01-30T04:18:16.760Z,101234.06
2023-01-30T04:20:52.644Z,101228.56
2023-01-30T04:23:29.414Z,101216.88
2023-01-30T04:25:59.495Z,101210.38
2023-01-30T04:28:28.494Z,101226.63
2023-01-30T04:30:56.652Z,101219.31
2023-01-30T04:33:43.410Z,101226.56
2023-01-30T04:36:13.663Z,101212.06
2023-01-30T04:38:42.569Z,101221.94
2023-01-30T04:41:11.796Z,101208.22
2023-01-30T04:43:42.628Z,101212.88
2023-01-30T04:46:22.028Z,101218.19
2023-01-30T04:48:49.949Z,101213.56
2023-01-30T04:51:17.893Z,101224.31
2023-01-30T04:53:45.933Z,101222.47
2023-01-30T04:56:16.266Z,101219.69
2023-01-30T04:58:44.691Z,101221.44
2023-01-30T05:01:17.290Z,101217.66
2023-01-30T05:03:45.237Z,101207.81
2023-01-30T05:06:13.012Z,101205.88
2023-01-30T05:08:40.872Z,101206.84
2023-01-30T05:11:08.688Z,101208.50
2023-01-30T05:13:37.959Z,101206.59
2023-01-30T05:16:06.156Z,101205.72
2023-01-30T05:18:34.013Z,101209.31
2023-01-30T05:21:06.550Z,101214.66
2023-01-30T05:23:34.846Z,101203.88
2023-01-30T05:26:02.794Z,101208.34
2023-01-30T05:28:30.835Z,101202.84
2023-01-30T05:31:03.705Z,101212.63
2023-01-30T05:33:31.407Z,101205.84
2023-01-30T05:35:59.229Z,101201.19
2023-01-30T05:38:27.672Z,101204.56
2023-01-30T05:41:02.649Z,101202.59
2023-01-30T05:43:31.465Z,101181.94
2023-01-30T05:46:01.188Z,101179.16
2023-01-30T05:48:30.652Z,101191.75
2023-01-30T05:51:00.198Z,101198.03
2023-01-30T05:53:30.148Z,101181.72
2023-01-30T05:55:59.233Z,101184.44
2023-01-30T05:58:27.687Z,101174.47
2023-01-30T06:00:55.887Z,101184.34
2023-01-30T06:03:23.702Z,101179.81
2023-01-30T06:05:52.858Z,101184.22
2023-01-30T06:08:20.612Z,101181.53
2023-01-30T06:10:48.377Z,101186.94
2023-01-30T06:13:16.139Z,101191.47
2023-01-30T06:15:44.468Z,101202.31
2023-01-30T06:18:12.343Z,101196.81
2023-01-30T06:20:40.214Z,101209.50
2023-01-30T06:23:09.341Z,101215.69
2023-01-30T06:25:37.258Z,101221.19
2023-01-30T06:28:05.410Z,101216.59
2023-01-30T06:30:33.257Z,101209.41
2023-01-30T06:33:01.182Z,101210.28
2023-01-30T06:35:29.119Z,101210.38
2023-01-30T06:37:56.892Z,101219.38
2023-01-30T06:40:26.381Z,101221.03
2023-01-30T06:42:54.161Z,101226.47
2023-01-30T06:45:21.955Z,101225.59
2023-01-30T06:47:51.772Z,101220.16
2023-01-30T06:50:21.718Z,101232.75
2023-01-30T06:52:51.553Z,101232.75
2023-01-30T06:55:21.485Z,101227.34
2023-01-30T06:57:51.081Z,101227.34
2023-01-30T07:00:21.464Z,101232.69
2023-01-30T07:02:49.229Z,101251.66
2023-01-30T07:05:17.549Z,101253.28
2023-01-30T07:07:45.483Z,101236.06
2023-01-30T07:10:13.372Z,101245.00
2023-01-30T07:12:41.176Z,101234.09
2023-01-30T07:15:11.108Z,101233.88
2023-01-30T07:17:40.554Z,101233.88
2023-01-30T07:20:09.553Z,101240.97
2023-01-30T07:22:37.296Z,101225.53
2023-01-30T07:25:05.838Z,101232.63
2023-01-30T07:27:34.007Z,101229.78
2023-01-30T07:30:01.796Z,101229.72
2023-01-30T07:32:30.923Z,101228.69
2023-01-30T07:34:58.738Z,101208.75
2023-01-30T07:37:26.520Z,101216.69
2023-01-30T07:39:54.270Z,101224.72
2023-01-30T07:42:22.179Z,101226.41
2023-01-30T07:44:49.921Z,101242.59
2023-01-30T07:47:20.065Z,101234.38
2023-01-30T07:49:49.253Z,101237.75
2023-01-30T07:52:19.833Z,101243.97
2023-01-30T07:54:47.672Z,101253.06
2023-01-30T07:57:15.479Z,101255.72
2023-01-30T07:59:43.596Z,101260.94
2023-01-30T08:02:12.501Z,101258.13
2023-01-30T08:04:40.474Z,101247.28
2023-01-30T08:07:09.804Z,101250.81
2023-01-30T08:09:37.594Z,101257.09
2023-01-30T08:12:05.762Z,101251.59
2023-01-30T08:14:33.602Z,101247.94
2023-01-30T08:17:01.343Z,101247.81
2023-01-30T08:19:29.193Z,101258.66
2023-01-30T08:21:56.944Z,101250.44
2023-01-30T08:24:26.302Z,101260.25
2023-01-30T08:26:54.146Z,101270.13
2023-01-30T08:29:21.992Z,101275.56
2023-01-30T08:31:49.948Z,101280.03
2023-01-30T08:34:17.795Z,101288.94
2023-01-30T08:36:46.637Z,101271.69
2023-01-30T08:39:14.988Z,101277.91
2023-01-30T08:41:44.123Z,101286.75
2023-01-30T08:44:12.190Z,101283.09
2023-01-30T08:46:40.677Z,101292.00
2023-01-30T08:49:08.615Z,101286.41
2023-01-30T08:51:36.413Z,101283.53
2023-01-30T08:54:04.289Z,101285.16
2023-01-30T08:56:32.111Z,101305.75
2023-01-30T08:59:01.328Z,101313.69
2023-01-30T09:01:29.168Z,101306.34
2023-01-30T09:03:57.133Z,101316.19
2023-01-30T09:06:26.292Z,101312.44
2023-01-30T09:08:54.228Z,101316.78
2023-01-30T09:11:22.104Z,101316.69
2023-01-30T09:13:49.964Z,101316.63
2023-01-30T09:16:19.237Z,101303.72
2023-01-30T09:18:47.016Z,101299.16
2023-01-30T09:21:15.288Z,101280.97
2023-01-30T09:23:43.168Z,101296.19
2023-01-30T09:26:11.152Z,101289.91
2023-01-30T09:28:39.171Z,101296.88
2023-01-30T09:31:07.029Z,101310.44
2023-01-30T09:33:36.307Z,101307.66
2023-01-30T09:36:04.264Z,101319.38
2023-01-30T09:38:32.095Z,101327.44
2023-01-30T09:41:29.479Z,101326.28
2023-01-30T09:44:15.309Z,101331.53
2023-01-30T09:46:49.397Z,101323.16
2023-01-30T09:49:30.918Z,101325.41
2023-01-30T09:52:09.674Z,101325.13
2023-01-30T09:54:40.168Z,101336.56
2023-01-30T09:57:21.200Z,101328.81
2023-01-30T09:59:57.105Z,101325.84
2023-01-30T10:02:42.205Z,101330.03
2023-01-30T10:05:11.608Z,101338.88
2023-01-30T10:08:01.233Z,101331.31
2023-01-30T10:10:42.495Z,101331.16
2023-01-30T10:13:28.262Z,101357.34
2023-01-30T10:16:05.445Z,101338.25
2023-01-30T10:18:51.047Z,101333.56
2023-01-30T10:21:33.662Z,101357.13
2023-01-30T10:24:20.179Z,101376.28
2023-01-30T10:26:49.197Z,101356.47
2023-01-30T10:29:21.445Z,101353.66
2023-01-30T10:31:52.755Z,101360.16
2023-01-30T10:34:25.116Z,101350.25
2023-01-30T10:37:00.003Z,101354.00
2023-01-30T10:39:36.937Z,101336.84
2023-01-30T10:42:12.334Z,101349.66
2023-01-30T10:44:42.701Z,101356.16
2023-01-30T10:47:45.620Z,101361.50
2023-01-30T10:50:18.220Z,101366.31
2023-01-30T10:52:55.895Z,101373.59
2023-01-30T10:55:37.571Z,101372.69
2023-01-30T10:58:15.255Z,101359.31
2023-01-30T11:00:48.711Z,101363.88
2023-01-30T11:03:24.363Z,101354.84
2023-01-30T11:05:54.103Z,101357.66
2023-01-30T11:08:28.473Z,101366.69
2023-01-30T11:10:58.364Z,101362.22
2023-01-30T11:13:30.514Z,101365.13
2023-01-30T11:16:00.810Z,101366.97
2023-01-30T11:21:27.096Z,101368.81
2023-01-30T11:24:06.672Z,101350.69
2023-01-30T11:26:46.925Z,101354.34
2023-01-30T11:29:28.501Z,101373.28
2023-01-30T11:31:56.943Z,101355.31
2023-01-30T11:34:25.468Z,101370.56
2023-01-30T11:36:53.636Z,101370.44
2023-01-30T11:39:25.153Z,101372.19
2023-01-30T11:42:04.588Z,101374.84
2023-01-30T11:44:35.436Z,101379.31
2023-01-30T11:47:08.683Z,101359.31
2023-01-30T11:49:58.906Z,101372.91
2023-01-30T11:52:31.367Z,101371.94
2023-01-30T11:55:05.540Z,101370.88
2023-01-30T11:57:41.276Z,101366.31
2023-01-30T12:00:18.321Z,101377.09
2023-01-30T12:02:49.361Z,101366.22
2023-01-30T12:05:26.546Z,101360.69
2023-01-30T12:07:54.483Z,101360.78
2023-01-30T12:10:32.531Z,101368.78
2023-01-30T12:13:03.741Z,101377.88
2023-01-30T12:15:34.109Z,101371.47
2023-01-30T12:18:06.507Z,101379.56
2023-01-30T12:20:47.770Z,101381.38
2023-01-30T12:23:24.341Z,101369.66
2023-01-30T12:26:00.815Z,101364.13
2023-01-30T12:28:36.614Z,101370.41
2023-01-30T12:31:09.648Z,101361.41
2023-01-30T12:33:37.641Z,101372.28
2023-01-30T12:36:14.909Z,101350.25
2023-01-30T12:39:05.767Z,101370.16
2023-01-30T12:41:49.956Z,101363.75
2023-01-30T12:44:38.515Z,101369.09
2023-01-30T12:47:26.410Z,101379.00
2023-01-30T12:50:07.405Z,101359.78
2023-01-30T12:52:51.727Z,101368.72
2023-01-30T12:55:32.643Z,101355.78
2023-01-30T12:58:05.083Z,101367.44
2023-01-30T13:00:46.398Z,101381.75
2023-01-30T13:03:24.777Z,101386.09
2023-01-30T13:06:03.012Z,101404.94
2023-01-30T13:09:00.981Z,101368.66
2023-01-30T13:11:42.590Z,101399.25
2023-01-30T13:14:21.310Z,101391.75
2023-01-30T13:17:11.480Z,101394.31
2023-01-30T13:19:46.019Z,101389.53
2023-01-30T13:22:22.662Z,101396.53
2023-01-30T13:25:01.501Z,101393.53
2023-01-30T13:27:32.159Z,101395.28
2023-01-30T13:30:05.605Z,101412.28
2023-01-30T13:32:38.959Z,101413.84
2023-01-30T13:35:15.515Z,101420.06
2023-01-30T13:37:45.651Z,101428.13
2023-01-30T13:40:18.057Z,101427.84
2023-01-30T13:42:53.000Z,101426.88
2023-01-30T13:45:24.867Z,101429.50
2023-01-30T13:48:03.796Z,101431.16
2023-01-30T13:51:10.618Z,101440.19
2023-01-30T13:53:47.813Z,101440.97
2023-01-30T13:56:40.187Z,101438.97
2023-01-30T13:59:16.736Z,101450.78
2023-01-30T14:02:17.055Z,101449.75
2023-01-30T14:04:47.133Z,101460.56
2023-01-30T14:07:25.015Z,101454.91
2023-01-30T14:10:04.572Z,101452.97
2023-01-30T14:12:36.451Z,101468.41
2023-01-30T14:15:17.065Z,101458.31
2023-01-30T14:18:01.725Z,101472.69
2023-01-30T14:20:32.252Z,101469.13
2023-01-30T14:23:03.471Z,101473.47
2023-01-30T14:25:43.919Z,101485.13
2023-01-30T14:28:49.227Z,101486.00
2023-01-30T14:31:52.849Z,101494.09
2023-01-30T14:34:48.032Z,101491.97
2023-01-30T14:37:45.968Z,101499.63
2023-01-30T14:41:10.476Z,101498.81
2023-01-30T14:43:52.299Z,101494.09
2023-01-30T14:46:55.058Z,101505.84
2023-01-30T14:49:37.680Z,101507.47
2023-01-30T14:52:05.847Z,101513.88
2023-01-30T14:54:44.404Z,101521.78
2023-01-30T14:57:24.541Z,101520.91
2023-01-30T15:00:14.859Z,101526.44
2023-01-30T15:02:49.054Z,101534.59
2023-01-30T15:05:21.072Z,101531.78
2023-01-30T15:07:53.148Z,101541.88
2023-01-30T15:10:37.240Z,101541.81
2023-01-30T15:13:47.438Z,101561.16
2023-01-30T15:16:39.554Z,101567.25
2023-01-30T15:19:38.409Z,101560.94
2023-01-30T15:22:18.126Z,101564.53
2023-01-30T15:25:17.183Z,101576.47
2023-01-30T15:28:00.710Z,101585.44
2023-01-30T15:30:44.967Z,101594.56
2023-01-30T15:33:22.984Z,101600.13
2023-01-30T15:35:57.667Z,101602.06
2023-01-30T15:38:28.897Z,101613.81
2023-01-30T15:40:59.180Z,101617.41
2023-01-30T15:43:50.822Z,101612.94
2023-01-30T15:46:26.695Z,101618.47
2023-01-30T15:49:08.881Z,101615.66
2023-01-30T15:51:37.067Z,101619.44
2023-01-30T15:54:11.363Z,101620.22
2023-01-30T15:56:41.465Z,101624.00
2023-01-30T15:59:32.518Z,101638.56
2023-01-30T16:02:04.100Z,101638.66
2023-01-30T16:04:32.426Z,101636.94
2023-01-30T16:07:00.912Z,101640.59
2023-01-30T16:09:28.948Z,101647.00
2023-01-30T16:11:56.838Z,101653.41
2023-01-30T16:14:26.156Z,101665.19
2023-01-30T16:16:57.699Z,101660.72
2023-01-30T16:19:29.540Z,101670.72
2023-01-30T16:22:00.913Z,101675.34
2023-01-30T16:24:32.003Z,101675.28
2023-01-30T16:27:02.771Z,101690.72
2023-01-30T16:29:34.546Z,101688.88
2023-01-30T16:32:02.533Z,101685.47
2023-01-30T16:34:33.080Z,101694.53
2023-01-30T16:37:05.711Z,101698.97
2023-01-30T16:39:36.293Z,101698.28
2023-01-30T16:42:19.934Z,101702.75
2023-01-30T16:44:49.242Z,101714.66
2023-01-30T16:47:24.619Z,101711.81
2023-01-30T16:49:54.186Z,101708.28
2023-01-30T16:52:24.906Z,101731.84
2023-01-30T16:54:55.227Z,101729.22
2023-01-30T16:57:36.399Z,101726.41
2023-01-30T17:00:17.892Z,101721.06
2023-01-30T17:02:52.550Z,101736.50
2023-01-30T17:05:23.029Z,101730.25
2023-01-30T17:07:52.418Z,101736.59
2023-01-30T17:10:53.136Z,101740.31
2023-01-30T17:13:37.972Z,101737.66
2023-01-30T17:16:34.061Z,101756.06
2023-01-30T17:19:02.299Z,101761.44
2023-01-30T17:21:35.970Z,101764.06
2023-01-30T17:24:06.254Z,101758.63
2023-01-30T17:26:34.848Z,101769.59
2023-01-30T17:29:02.630Z,101765.03
2023-01-30T17:31:31.920Z,101766.88
2023-01-30T17:33:59.812Z,101763.34
2023-01-30T17:36:29.382Z,101782.31
2023-01-30T17:39:00.317Z,101778.69
2023-01-30T17:41:30.891Z,101778.78
2023-01-30T17:43:59.174Z,101787.06
2023-01-30T17:46:36.265Z,101797.81
2023-01-30T17:49:04.373Z,101807.94
2023-01-30T17:51:32.216Z,101810.66
2023-01-30T17:54:00.271Z,101812.50
2023-01-30T17:56:34.820Z,101819.59
2023-01-30T17:59:04.108Z,101818.81
2023-01-30T18:01:33.372Z,101824.16
2023-01-30T18:04:01.286Z,101824.25
2023-01-30T18:06:29.914Z,101824.25
2023-01-30T18:08:57.833Z,101830.66
2023-01-30T18:11:25.705Z,101837.94
2023-01-30T18:13:53.749Z,101845.22
2023-01-30T18:16:24.409Z,101856.09
2023-01-30T18:18:53.673Z,101854.34
2023-01-30T18:21:22.483Z,101848.97
2023-01-30T18:23:50.904Z,101852.66
2023-01-30T18:26:19.682Z,101848.09
2023-01-30T18:28:48.027Z,101851.00
2023-01-30T18:31:16.397Z,101846.53
2023-01-30T18:33:45.595Z,101854.75
2023-01-30T18:36:16.797Z,101851.16
2023-01-30T18:38:45.037Z,101853.06
2023-01-30T18:41:14.747Z,101863.94
2023-01-30T18:43:43.163Z,101866.75
2023-01-30T18:46:13.196Z,101865.91
2023-01-30T18:48:42.622Z,101857.00
2023-01-30T18:51:13.141Z,101860.69
2023-01-30T18:53:43.540Z,101862.53
2023-01-30T18:56:13.093Z,101864.44
2023-01-30T18:58:41.188Z,101863.56
2023-01-30T19:01:14.168Z,101866.28
2023-01-30T19:03:42.262Z,101882.25
2023-01-30T19:06:13.040Z,101882.94
2023-01-30T19:08:42.730Z,101880.13
2023-01-30T19:11:29.983Z,101885.56
2023-01-30T19:13:58.619Z,101883.00
2023-01-30T19:16:28.969Z,101895.66
2023-01-30T19:18:57.621Z,101899.31
2023-01-30T19:21:26.336Z,101894.00
2023-01-30T19:23:57.397Z,101886.69
2023-01-30T19:26:26.060Z,101887.69
2023-01-30T19:28:53.945Z,101894.06
2023-01-30T19:31:23.119Z,101904.06
2023-01-30T19:33:55.682Z,101907.66
2023-01-30T19:36:25.074Z,101913.31
2023-01-30T19:38:53.134Z,101914.28
2023-01-30T19:41:24.421Z,101919.66
2023-01-30T19:43:52.923Z,101918.00
2023-01-30T19:46:21.425Z,101931.66
2023-01-30T19:48:50.532Z,101935.31
2023-01-30T19:51:20.965Z,101938.03
2023-01-30T19:53:52.697Z,101941.78
2023-01-30T19:56:24.818Z,101939.25
2023-01-30T19:58:57.170Z,101940.28
2023-01-30T20:01:27.728Z,101952.19
2023-01-30T20:03:55.610Z,101955.84
2023-01-30T20:06:26.145Z,101960.41
2023-01-30T20:08:58.235Z,101961.47
2023-01-30T20:11:28.567Z,101972.47
2023-01-30T20:13:56.827Z,101961.69
2023-01-30T20:16:27.563Z,101973.50
2023-01-30T20:19:00.346Z,101969.91
2023-01-30T20:21:29.309Z,101976.47
2023-01-30T20:23:57.663Z,101982.72
2023-01-30T20:26:29.534Z,101983.59
2023-01-30T20:28:58.385Z,101989.09
2023-01-30T20:31:28.474Z,101996.38
2023-01-30T20:33:57.750Z,101992.91
2023-01-30T20:36:27.726Z,101993.78
2023-01-30T20:39:01.754Z,101994.81
2023-01-30T20:41:32.413Z,101994.91
2023-01-30T20:44:00.635Z,101999.53
2023-01-30T20:46:30.045Z,102004.97
2023-01-30T20:49:01.193Z,102014.06
2023-01-30T20:51:30.939Z,102002.41
2023-01-30T20:54:00.321Z,102015.09
2023-01-30T20:56:33.860Z,102007.91
2023-01-30T20:59:02.602Z,102009.78
2023-01-30T21:01:30.624Z,102014.47
2023-01-30T21:03:58.879Z,102011.75
2023-01-30T21:06:37.222Z,102011.81
2023-01-30T21:09:15.150Z,102017.31
2023-01-30T21:11:44.550Z,102016.44
2023-01-30T21:14:12.499Z,102020.19
2023-01-30T21:16:40.912Z,102022.09
2023-01-30T21:19:13.844Z,102017.63
2023-01-30T21:21:46.962Z,102023.13
2023-01-30T21:24:15.559Z,102025.03
2023-01-30T21:26:47.015Z,102038.59
2023-01-30T21:29:17.636Z,102037.81
2023-01-30T21:31:46.251Z,102042.38
2023-01-30T21:34:14.568Z,102040.66
2023-01-30T21:36:42.582Z,102042.56
2023-01-30T21:39:31.684Z,102032.59
2023-01-30T21:42:19.294Z,102036.50
2023-01-30T21:44:48.019Z,102037.56
2023-01-30T21:47:15.817Z,102033.13
2023-01-30T21:49:45.530Z,102031.38
2023-01-30T21:52:13.350Z,102033.19
2023-01-30T21:54:41.212Z,102036.84
2023-01-30T21:57:10.552Z,102046.84
2023-01-30T21:59:38.921Z,102044.19
2023-01-30T22:02:07.163Z,102051.44
2023-01-30T22:04:36.557Z,102048.72
2023-01-30T22:07:06.771Z,102047.91
2023-01-30T22:09:34.890Z,102047.06
2023-01-30T22:12:02.679Z,102056.16
2023-01-30T22:14:33.251Z,102052.50
2023-01-30T22:17:01.241Z,102051.69
2023-01-30T22:19:35.183Z,102058.06
2023-01-30T22:22:03.644Z,102065.38
2023-01-30T22:24:31.974Z,102059.00
2023-01-30T22:27:00.003Z,102058.19
2023-01-30T22:29:29.157Z,102069.94
2023-01-30T22:31:58.464Z,102080.72
2023-01-30T22:34:26.488Z,102067.28
2023-01-30T22:36:54.437Z,102066.41
2023-01-30T22:39:22.229Z,102070.94
2023-01-30T22:41:50.190Z,102069.22
2023-01-30T22:44:17.984Z,102071.94
2023-01-30T22:46:45.878Z,102080.06
2023-01-30T22:49:15.075Z,102079.97
2023-01-30T22:51:43.488Z,102075.53
2023-01-30T22:54:15.598Z,102078.22
2023-01-30T22:56:45.126Z,102077.41
2023-01-30T22:59:13.424Z,102073.75
2023-01-30T23:01:43.066Z,102088.22
2023-01-30T23:04:13.349Z,102084.50
2023-01-30T23:06:43.222Z,102089.94
2023-01-30T23:09:16.038Z,102089.09
2023-01-30T23:12:05.392Z,102089.16
2023-01-30T23:14:33.592Z,102073.81
2023-01-30T23:17:01.392Z,102079.19
2023-01-30T23:19:28.350Z,102076.47
2023-01-30T23:21:57.495Z,102077.34
2023-01-30T23:24:25.348Z,102078.31
2023-01-30T23:26:53.143Z,102073.81
2023-01-30T23:29:21.639Z,102066.56
2023-01-30T23:31:49.474Z,102080.13
2023-01-30T23:34:19.256Z,102086.44
2023-01-30T23:36:47.974Z,102081.06
2023-01-30T23:39:17.267Z,102088.28
2023-01-30T23:41:45.116Z,102079.31
2023-01-30T23:44:12.924Z,102080.19
2023-01-30T23:46:42.594Z,102085.63
2023-01-30T23:49:13.788Z,102080.19
2023-01-30T23:51:43.192Z,102092.00
2023-01-30T23:54:12.036Z,102088.41
2023-01-30T23:56:43.297Z,102085.63
2023-01-30T23:59:11.965Z,102092.00
